createdAt,value
2018-05-09T00:01:47.763Z,52.41
2018-05-09T00:04:16.993Z,52.87
2018-05-09T00:06:45.507Z,52.59
2018-05-09T00:09:13.968Z,52.91
2018-05-09T00:11:42.501Z,52.91
2018-05-09T00:14:10.956Z,53.35
2018-05-09T00:16:39.467Z,52.59
2018-05-09T00:19:07.981Z,51.45
2018-05-09T00:21:37.289Z,50.32
2018-05-09T00:24:06.514Z,49.18
2018-05-09T00:26:35.014Z,48.80
2018-05-09T00:29:04.256Z,48.92
2018-05-09T00:31:32.756Z,48.85
2018-05-09T00:34:01.221Z,48.29
2018-05-09T00:36:29.863Z,48.28
2018-05-09T00:38:58.335Z,48.07
2018-05-09T00:41:26.863Z,48.96
2018-05-09T00:43:55.343Z,50.13
2018-05-09T00:46:23.837Z,50.39
2018-05-09T00:48:52.290Z,50.86
2018-05-09T00:51:20.805Z,51.83
2018-05-09T00:53:49.269Z,51.88
2018-05-09T00:56:17.748Z,52.55
2018-05-09T00:58:46.188Z,52.90
2018-05-09T01:01:15.461Z,52.77
2018-05-09T01:03:43.983Z,53.28
2018-05-09T01:06:13.261Z,53.50
2018-05-09T01:08:41.743Z,53.48
2018-05-09T01:11:10.269Z,53.39
2018-05-09T01:13:39.543Z,54.00
2018-05-09T01:16:08.042Z,53.60
2018-05-09T01:18:36.506Z,52.54
2018-05-09T01:21:05.018Z,53.22
2018-05-09T01:23:33.477Z,53.19
2018-05-09T01:26:01.989Z,52.71
2018-05-09T01:28:31.225Z,53.17
2018-05-09T01:30:59.718Z,53.90
2018-05-09T01:33:28.193Z,54.45
2018-05-09T01:35:57.477Z,55.56
2018-05-09T01:38:26.702Z,55.16
2018-05-09T01:40:55.188Z,54.77
2018-05-09T01:43:23.651Z,54.58
2018-05-09T01:45:52.949Z,54.26
2018-05-09T01:48:21.414Z,53.92
2018-05-09T01:50:49.897Z,53.43
2018-05-09T01:53:18.360Z,53.24
2018-05-09T01:55:47.670Z,53.05
2018-05-09T01:58:16.133Z,52.60
2018-05-09T02:00:44.584Z,52.57
2018-05-09T02:03:13.840Z,52.52
2018-05-09T02:05:42.335Z,52.36
2018-05-09T02:08:10.888Z,52.22
2018-05-09T02:10:39.334Z,52.29
2018-05-09T02:13:07.813Z,51.68
2018-05-09T02:15:36.309Z,51.71
2018-05-09T02:18:04.797Z,51.23
2018-05-09T02:20:34.284Z,51.35
2018-05-09T02:23:02.842Z,51.60
2018-05-09T02:25:31.298Z,51.58
2018-05-09T02:28:00.532Z,51.76
2018-05-09T02:30:29.029Z,51.81
2018-05-09T02:32:57.519Z,51.66
2018-05-09T02:35:25.978Z,51.92
2018-05-09T02:37:54.508Z,51.64
2018-05-09T02:40:22.985Z,51.88
2018-05-09T02:42:51.487Z,52.33
2018-05-09T02:45:20.705Z,53.24
2018-05-09T02:47:49.942Z,53.18
2018-05-09T02:50:18.395Z,52.84
2018-05-09T02:52:47.453Z,52.91
2018-05-09T02:55:15.978Z,52.80
2018-05-09T02:57:45.268Z,52.86
2018-05-09T03:00:13.864Z,53.00
2018-05-09T03:05:17.807Z,53.30
2018-05-09T03:07:47.096Z,53.32
2018-05-09T03:10:16.038Z,53.24
2018-05-09T03:12:44.589Z,53.38
2018-05-09T03:15:13.798Z,53.38
2018-05-09T03:17:43.357Z,53.14
2018-05-09T03:20:11.902Z,53.29
2018-05-09T03:22:40.486Z,53.69
2018-05-09T03:25:08.940Z,54.67
2018-05-09T03:27:37.475Z,55.36
2018-05-09T03:30:05.946Z,54.74
2018-05-09T03:32:34.499Z,54.95
2018-05-09T03:35:03.910Z,55.12
2018-05-09T03:37:33.244Z,55.07
2018-05-09T03:40:01.721Z,55.54
2018-05-09T03:42:30.987Z,56.05
2018-05-09T03:44:59.481Z,56.61
2018-05-09T03:47:27.980Z,57.28
2018-05-09T03:49:56.415Z,57.52
2018-05-09T03:52:24.959Z,58.09
2018-05-09T03:54:54.189Z,58.53
2018-05-09T03:57:22.772Z,59.21
2018-05-09T03:59:51.255Z,59.50
2018-05-09T04:02:44.515Z,59.72
2018-05-09T04:05:30.808Z,60.15
2018-05-09T04:08:16.935Z,60.55
2018-05-09T04:10:45.389Z,61.08
2018-05-09T04:13:13.910Z,61.87
2018-05-09T04:15:42.398Z,62.25
2018-05-09T04:18:10.901Z,62.57
2018-05-09T04:20:40.212Z,63.30
2018-05-09T04:23:09.417Z,63.41
2018-05-09T04:25:37.865Z,63.52
2018-05-09T04:28:06.415Z,64.06
2018-05-09T04:30:35.612Z,64.33
2018-05-09T04:33:04.224Z,64.60
2018-05-09T04:35:32.689Z,64.67
2018-05-09T04:38:01.167Z,64.77
2018-05-09T04:40:29.633Z,64.81
2018-05-09T04:42:58.909Z,64.68
2018-05-09T04:45:27.357Z,64.50
2018-05-09T04:47:55.840Z,64.11
2018-05-09T04:50:24.321Z,63.69
2018-05-09T04:52:52.843Z,63.93
2018-05-09T04:55:21.386Z,63.74
2018-05-09T04:57:49.807Z,63.15
2018-05-09T05:00:18.282Z,63.04
2018-05-09T05:02:46.747Z,62.95
2018-05-09T05:05:15.691Z,62.58
2018-05-09T05:07:44.194Z,62.99
2018-05-09T05:10:12.760Z,62.48
2018-05-09T05:12:41.223Z,62.03
2018-05-09T05:15:09.733Z,61.75
2018-05-09T05:17:38.278Z,61.79
2018-05-09T05:20:06.831Z,61.12
2018-05-09T05:22:36.125Z,61.60
2018-05-09T05:25:05.440Z,62.36
2018-05-09T05:27:34.836Z,61.43
2018-05-09T05:30:03.337Z,60.09
2018-05-09T05:32:32.590Z,59.53
2018-05-09T05:35:01.068Z,56.95
2018-05-09T05:37:29.679Z,53.81
2018-05-09T05:39:58.165Z,53.57
2018-05-09T05:42:26.808Z,52.77
2018-05-09T05:44:55.521Z,52.61
2018-05-09T05:47:24.453Z,52.72
2018-05-09T05:49:53.729Z,52.37
2018-05-09T05:52:22.392Z,52.74
2018-05-09T05:54:50.909Z,51.10
2018-05-09T05:57:19.355Z,50.93
2018-05-09T05:59:47.850Z,50.20
2018-05-09T06:02:16.346Z,49.30
2018-05-09T06:04:44.821Z,49.36
2018-05-09T06:07:13.281Z,49.07
2018-05-09T06:09:42.579Z,49.33
2018-05-09T06:12:11.043Z,49.32
2018-05-09T06:14:39.526Z,49.56
2018-05-09T06:17:08.060Z,50.18
2018-05-09T06:19:36.524Z,50.77
2018-05-09T06:22:05.772Z,51.35
2018-05-09T06:24:34.266Z,50.05
2018-05-09T06:27:02.747Z,50.27
2018-05-09T06:29:31.227Z,49.78
2018-05-09T06:31:59.684Z,49.39
2018-05-09T06:34:28.176Z,48.97
2018-05-09T06:36:57.924Z,49.21
2018-05-09T06:39:26.481Z,51.06
2018-05-09T06:41:54.936Z,51.08
2018-05-09T06:44:23.471Z,50.73
2018-05-09T06:46:51.941Z,50.06
2018-05-09T06:49:21.188Z,49.69
2018-05-09T06:51:49.665Z,50.57
2018-05-09T06:54:18.127Z,49.40
2018-05-09T06:56:46.619Z,48.57
2018-05-09T06:59:15.084Z,47.30
2018-05-09T07:01:43.589Z,48.45
2018-05-09T07:04:12.046Z,48.45
2018-05-09T07:06:40.911Z,47.54
2018-05-09T07:09:09.149Z,48.55
2018-05-09T07:11:37.658Z,47.95
2018-05-09T07:14:06.118Z,48.44
2018-05-09T07:16:34.597Z,48.38
2018-05-09T07:19:03.083Z,48.33
2018-05-09T07:21:32.068Z,48.50
2018-05-09T07:24:00.547Z,47.77
2018-05-09T07:26:29.034Z,49.66
2018-05-09T07:28:57.523Z,49.39
2018-05-09T07:31:26.034Z,49.93
2018-05-09T07:33:54.540Z,50.01
2018-05-09T07:36:23.012Z,47.94
2018-05-09T07:38:51.484Z,49.10
2018-05-09T07:41:19.964Z,48.91
2018-05-09T07:43:48.424Z,49.12
2018-05-09T07:46:16.904Z,47.03
2018-05-09T07:48:46.180Z,49.15
2018-05-09T07:51:14.667Z,48.20
2018-05-09T07:53:43.168Z,45.93
2018-05-09T07:56:12.417Z,46.83
2018-05-09T07:58:40.883Z,47.88
2018-05-09T08:01:09.362Z,48.03
2018-05-09T08:03:37.833Z,43.62
2018-05-09T08:06:07.108Z,43.93
2018-05-09T08:08:35.570Z,46.81
2018-05-09T08:11:04.048Z,43.44
2018-05-09T08:13:32.507Z,43.39
2018-05-09T08:16:00.998Z,42.88
2018-05-09T08:18:29.461Z,42.97
2018-05-09T08:20:58.946Z,43.01
2018-05-09T08:23:28.203Z,42.81
2018-05-09T08:25:56.686Z,45.11
2018-05-09T08:28:25.324Z,44.45
2018-05-09T08:30:53.884Z,42.83
2018-05-09T08:33:22.344Z,45.50
2018-05-09T08:35:51.034Z,42.99
2018-05-09T08:38:19.471Z,44.05
2018-05-09T08:40:47.971Z,43.30
2018-05-09T08:43:17.415Z,41.70
2018-05-09T08:45:46.153Z,45.17
2018-05-09T08:48:14.605Z,41.54
2018-05-09T08:50:43.298Z,43.52
2018-05-09T08:53:12.025Z,42.01
2018-05-09T08:55:40.556Z,43.24
2018-05-09T08:58:09.045Z,42.56
2018-05-09T09:00:37.634Z,41.97
2018-05-09T09:03:06.136Z,42.42
2018-05-09T09:05:34.608Z,40.42
2018-05-09T09:08:03.090Z,41.15
2018-05-09T09:10:31.554Z,42.91
2018-05-09T09:13:00.873Z,41.22
2018-05-09T09:15:29.634Z,40.45
2018-05-09T09:17:58.801Z,39.20
2018-05-09T09:20:27.279Z,39.10
2018-05-09T09:22:55.762Z,39.26
2018-05-09T09:25:24.975Z,40.60
2018-05-09T09:27:53.559Z,37.72
2018-05-09T09:30:22.318Z,37.94
2018-05-09T09:32:50.849Z,38.38
2018-05-09T09:35:19.292Z,39.32
2018-05-09T09:37:48.050Z,40.21
2018-05-09T09:40:16.600Z,35.38
2018-05-09T09:42:45.156Z,38.48
2018-05-09T09:45:14.586Z,36.74
2018-05-09T09:47:43.068Z,38.45
2018-05-09T09:50:11.533Z,37.46
2018-05-09T09:52:40.337Z,38.57
2018-05-09T09:55:08.869Z,38.91
2018-05-09T09:57:37.608Z,36.95
2018-05-09T10:00:06.481Z,39.84
2018-05-09T10:02:35.725Z,36.78
2018-05-09T10:05:04.325Z,39.84
2018-05-09T10:07:33.057Z,38.00
2018-05-09T10:10:02.293Z,39.35
2018-05-09T10:12:30.855Z,37.76
2018-05-09T10:14:59.342Z,40.59
2018-05-09T10:17:28.638Z,36.23
2018-05-09T10:19:57.096Z,40.49
2018-05-09T10:22:25.701Z,37.32
2018-05-09T10:24:54.943Z,36.42
2018-05-09T10:27:23.418Z,35.90
2018-05-09T10:29:51.885Z,39.77
2018-05-09T10:32:21.146Z,35.89
2018-05-09T10:34:49.642Z,37.03
2018-05-09T10:37:18.169Z,36.46
2018-05-09T10:39:47.476Z,38.93
2018-05-09T10:42:15.886Z,34.13
2018-05-09T10:44:44.369Z,34.43
2018-05-09T10:47:13.696Z,36.55
2018-05-09T10:49:42.179Z,37.01
2018-05-09T10:52:10.680Z,39.59
2018-05-09T10:54:39.160Z,38.66
2018-05-09T10:57:07.697Z,41.83
2018-05-09T10:59:36.133Z,37.78
2018-05-09T11:02:04.585Z,34.08
2018-05-09T11:04:33.092Z,33.70
2018-05-09T11:07:01.562Z,36.79
2018-05-09T11:09:30.204Z,35.99
2018-05-09T11:11:59.431Z,35.96
2018-05-09T11:14:27.922Z,36.83
2018-05-09T11:16:56.376Z,38.78
2018-05-09T11:19:25.663Z,38.62
2018-05-09T11:21:54.131Z,38.27
2018-05-09T11:24:23.047Z,38.69
2018-05-09T11:26:51.536Z,38.22
2018-05-09T11:29:20.063Z,36.78
2018-05-09T11:31:48.523Z,39.60
2018-05-09T11:34:19.042Z,38.05
2018-05-09T11:36:48.460Z,38.64
2018-05-09T11:39:17.124Z,38.51
2018-05-09T11:41:45.662Z,37.94
2018-05-09T11:44:14.278Z,38.39
2018-05-09T11:46:42.769Z,39.35
2018-05-09T11:49:11.275Z,40.28
2018-05-09T11:51:39.802Z,40.33
2018-05-09T11:54:09.065Z,38.43
2018-05-09T11:56:37.543Z,39.01
2018-05-09T11:59:06.066Z,40.25
2018-05-09T12:01:34.515Z,37.87
2018-05-09T12:04:03.058Z,40.44
2018-05-09T12:06:31.574Z,40.57
2018-05-09T12:09:00.093Z,38.56
2018-05-09T12:11:32.643Z,40.43
2018-05-09T12:14:01.166Z,43.75
2018-05-09T12:16:29.609Z,36.50
2018-05-09T12:18:58.103Z,36.74
2018-05-09T12:21:26.595Z,36.20
2018-05-09T12:23:55.345Z,40.06
2018-05-09T12:26:23.898Z,36.76
2018-05-09T12:28:52.402Z,36.95
2018-05-09T12:31:21.655Z,34.68
2018-05-09T12:33:50.169Z,36.75
2018-05-09T12:36:18.735Z,38.20
2018-05-09T12:38:48.186Z,36.10
2018-05-09T12:41:17.440Z,40.99
2018-05-09T12:43:46.968Z,37.48
2018-05-09T12:46:16.925Z,36.59
2018-05-09T12:48:46.267Z,36.20
2018-05-09T12:51:14.663Z,36.69
2018-05-09T12:53:43.175Z,36.83
2018-05-09T12:56:11.902Z,35.44
2018-05-09T12:58:40.768Z,38.32
2018-05-09T13:01:10.755Z,36.51
2018-05-09T13:03:39.777Z,34.24
2018-05-09T13:06:08.920Z,34.75
2018-05-09T13:08:37.447Z,35.70
2018-05-09T13:11:05.997Z,36.27
2018-05-09T13:13:34.445Z,33.55
2018-05-09T13:16:03.701Z,33.47
2018-05-09T13:18:32.180Z,32.91
2018-05-09T13:21:00.694Z,33.18
2018-05-09T13:23:29.177Z,34.95
2018-05-09T13:25:57.709Z,38.62
2018-05-09T13:28:27.430Z,34.16
2018-05-09T13:30:55.912Z,33.73
2018-05-09T13:33:24.384Z,35.75
2018-05-09T13:35:53.646Z,34.92
2018-05-09T13:38:22.117Z,35.82
2018-05-09T13:40:50.616Z,35.63
2018-05-09T13:43:19.089Z,36.22
2018-05-09T13:45:47.564Z,36.41
2018-05-09T13:48:16.828Z,37.48
2018-05-09T13:50:46.123Z,38.21
2018-05-09T13:53:14.774Z,38.11
2018-05-09T13:55:43.299Z,36.89
2018-05-09T13:58:11.809Z,37.84
2018-05-09T14:00:41.060Z,36.10
2018-05-09T14:03:09.537Z,39.32
2018-05-09T14:05:38.133Z,37.62
2018-05-09T14:08:06.649Z,37.20
2018-05-09T14:10:35.137Z,37.07
2018-05-09T14:13:03.619Z,35.31
2018-05-09T14:15:32.267Z,35.12
2018-05-09T14:18:01.503Z,36.66
2018-05-09T14:20:30.030Z,36.52
2018-05-09T14:22:58.613Z,36.31
2018-05-09T14:25:27.953Z,35.54
2018-05-09T14:27:56.436Z,35.40
2018-05-09T14:30:24.943Z,34.94
2018-05-09T14:32:53.398Z,33.69
2018-05-09T14:35:21.920Z,33.89
2018-05-09T14:37:50.389Z,32.89
2018-05-09T14:40:18.912Z,34.48
2018-05-09T14:42:48.173Z,31.88
2018-05-09T14:45:16.746Z,32.36
2018-05-09T14:47:45.196Z,33.71
2018-05-09T14:50:13.780Z,33.60
2018-05-09T14:52:43.040Z,32.91
2018-05-09T14:55:12.366Z,34.71
2018-05-09T14:57:40.926Z,33.48
2018-05-09T15:00:09.521Z,33.25
2018-05-09T15:02:38.822Z,33.04
2018-05-09T15:05:07.380Z,34.36
2018-05-09T15:07:35.949Z,34.48
2018-05-09T15:10:05.421Z,35.78
2018-05-09T15:12:33.971Z,36.24
2018-05-09T15:15:02.506Z,37.58
2018-05-09T15:17:32.811Z,36.98
2018-05-09T15:20:01.294Z,38.45
2018-05-09T15:22:29.897Z,37.11
2018-05-09T15:24:58.373Z,36.54
2018-05-09T15:27:27.115Z,36.67
2018-05-09T15:29:56.364Z,34.16
2018-05-09T15:32:24.860Z,36.22
2018-05-09T15:34:53.342Z,35.56
2018-05-09T15:37:21.862Z,32.84
2018-05-09T15:39:51.092Z,32.22
2018-05-09T15:42:19.617Z,32.16
2018-05-09T15:44:48.122Z,32.68
2018-05-09T15:47:16.644Z,33.49
2018-05-09T15:49:45.872Z,33.99
2018-05-09T15:52:14.405Z,33.78
2018-05-09T15:54:43.768Z,34.30
2018-05-09T15:57:12.534Z,33.98
2018-05-09T15:59:41.790Z,33.62
2018-05-09T16:02:10.720Z,32.40
2018-05-09T16:04:39.163Z,32.20
2018-05-09T16:07:07.715Z,32.83
2018-05-09T16:09:36.257Z,31.85
2018-05-09T16:12:04.842Z,31.71
2018-05-09T16:14:34.044Z,33.05
2018-05-09T16:17:02.540Z,33.72
2018-05-09T16:19:31.091Z,31.40
2018-05-09T16:21:59.603Z,31.84
2018-05-09T16:24:28.103Z,32.41
2018-05-09T16:26:56.643Z,33.76
2018-05-09T16:29:25.134Z,33.17
2018-05-09T16:31:53.631Z,34.84
2018-05-09T16:34:22.115Z,34.01
2018-05-09T16:36:50.622Z,34.88
2018-05-09T16:39:19.109Z,34.85
2018-05-09T16:41:47.647Z,35.95
2018-05-09T16:44:16.107Z,33.67
2018-05-09T16:46:45.402Z,33.53
2018-05-09T16:49:13.955Z,33.78
2018-05-09T16:51:42.483Z,32.55
2018-05-09T16:54:10.975Z,33.88
2018-05-09T16:56:40.339Z,33.49
2018-05-09T16:59:09.735Z,33.62
2018-05-09T17:01:38.268Z,33.69
2018-05-09T17:04:07.621Z,34.27
2018-05-09T17:06:36.161Z,35.87
2018-05-09T17:09:04.968Z,35.99
2018-05-09T17:11:33.454Z,36.73
2018-05-09T17:14:02.024Z,35.56
2018-05-09T17:16:31.280Z,35.57
2018-05-09T17:18:59.845Z,34.61
2018-05-09T17:21:45.965Z,34.94
2018-05-09T17:24:14.517Z,35.73
2018-05-09T17:26:43.063Z,35.89
2018-05-09T17:29:11.624Z,35.12
2018-05-09T17:31:40.189Z,36.23
2018-05-09T17:34:08.756Z,36.08
2018-05-09T17:36:37.236Z,35.22
2018-05-09T17:39:06.563Z,35.76
2018-05-09T17:41:36.676Z,36.09
2018-05-09T17:44:05.169Z,35.95
2018-05-09T17:46:33.672Z,35.75
2018-05-09T17:49:02.185Z,35.97
2018-05-09T17:51:31.542Z,36.50
2018-05-09T17:54:00.030Z,35.87
2018-05-09T17:56:30.240Z,37.09
2018-05-09T17:59:00.242Z,36.76
2018-05-09T18:01:29.770Z,36.68
2018-05-09T18:04:03.964Z,37.79
2018-05-09T18:06:32.396Z,38.24
2018-05-09T18:09:00.874Z,39.23
2018-05-09T18:11:29.332Z,40.24
2018-05-09T18:13:58.592Z,41.28
2018-05-09T18:16:27.066Z,42.37
2018-05-09T18:18:55.567Z,42.93
2018-05-09T18:21:24.015Z,43.56
2018-05-09T18:23:52.515Z,43.72
2018-05-09T18:26:21.086Z,43.46
2018-05-09T18:28:49.585Z,44.74
2018-05-09T18:31:18.038Z,45.43
2018-05-09T18:33:47.273Z,46.26
2018-05-09T18:36:15.732Z,46.73
2018-05-09T18:38:45.006Z,47.39
2018-05-09T18:41:13.461Z,47.92
2018-05-09T18:43:41.980Z,48.19
2018-05-09T18:46:10.493Z,49.57
2018-05-09T18:48:38.987Z,49.72
2018-05-09T18:51:07.442Z,50.35
2018-05-09T18:53:36.712Z,50.17
2018-05-09T18:56:05.229Z,50.69
2018-05-09T18:58:33.723Z,50.92
2018-05-09T19:01:02.215Z,51.18
2018-05-09T19:03:31.497Z,51.57
2018-05-09T19:05:59.980Z,51.71
2018-05-09T19:08:28.453Z,51.50
2018-05-09T19:10:56.990Z,51.79
2018-05-09T19:13:26.250Z,52.09
2018-05-09T19:15:54.707Z,52.44
2018-05-09T19:18:23.192Z,52.06
2018-05-09T19:20:51.714Z,52.19
2018-05-09T19:23:20.166Z,52.15
2018-05-09T19:25:48.660Z,52.22
2018-05-09T19:28:17.178Z,52.50
2018-05-09T19:30:45.661Z,53.21
2018-05-09T19:33:14.125Z,53.09
2018-05-09T19:35:42.650Z,53.42
2018-05-09T19:38:11.889Z,53.65
2018-05-09T19:40:40.384Z,53.44
2018-05-09T19:43:08.846Z,53.82
2018-05-09T19:45:37.326Z,53.93
2018-05-09T19:48:05.795Z,53.85
2018-05-09T19:50:35.055Z,54.31
2018-05-09T19:53:03.499Z,54.72
2018-05-09T19:55:31.998Z,55.00
2018-05-09T19:58:00.448Z,54.48
2018-05-09T20:00:29.707Z,54.67
2018-05-09T20:02:58.300Z,54.71
2018-05-09T20:05:27.515Z,54.69
2018-05-09T20:07:55.969Z,54.88
2018-05-09T20:10:24.449Z,55.22
2018-05-09T20:12:52.954Z,55.38
2018-05-09T20:15:21.503Z,55.38
2018-05-09T20:17:50.010Z,55.49
2018-05-09T20:20:18.536Z,55.80
2018-05-09T20:22:47.291Z,55.88
2018-05-09T20:25:15.790Z,55.95
2018-05-09T20:27:44.260Z,56.14
2018-05-09T20:30:18.276Z,56.58
2018-05-09T20:32:46.841Z,56.64
2018-05-09T20:35:15.491Z,56.55
2018-05-09T20:37:44.014Z,56.71
2018-05-09T20:40:12.553Z,56.56
2018-05-09T20:42:41.031Z,56.62
2018-05-09T20:45:09.523Z,57.38
2018-05-09T20:47:38.177Z,57.43
2018-05-09T20:50:06.664Z,57.59
2018-05-09T20:52:35.138Z,57.10
2018-05-09T20:55:21.463Z,56.87
2018-05-09T20:57:49.932Z,57.54
2018-05-09T21:00:18.489Z,57.43
2018-05-09T21:02:47.871Z,57.49
2018-05-09T21:05:16.503Z,57.57
2018-05-09T21:07:57.010Z,57.64
2018-05-09T21:10:25.502Z,57.84
2018-05-09T21:12:54.006Z,57.99
2018-05-09T21:15:23.306Z,58.13
2018-05-09T21:17:51.822Z,57.79
2018-05-09T21:20:20.365Z,57.72
2018-05-09T21:22:49.101Z,57.50
2018-05-09T21:25:18.354Z,57.53
2018-05-09T21:27:47.738Z,57.53
2018-05-09T21:30:16.121Z,57.78
2018-05-09T21:32:44.607Z,58.22
2018-05-09T21:35:13.089Z,57.74
2018-05-09T21:37:42.351Z,57.48
2018-05-09T21:40:11.616Z,57.71
2018-05-09T21:42:40.159Z,58.26
2018-05-09T21:45:08.665Z,58.93
2018-05-09T21:47:37.329Z,59.07
2018-05-09T21:50:05.876Z,58.47
2018-05-09T21:52:34.524Z,59.09
2018-05-09T21:55:04.411Z,59.39
2018-05-09T21:57:34.220Z,59.64
2018-05-09T22:00:02.990Z,59.83
2018-05-09T22:02:34.448Z,59.76
2018-05-09T22:05:03.105Z,59.75
2018-05-09T22:07:31.769Z,59.72
2018-05-09T22:10:01.638Z,59.29
2018-05-09T22:12:30.196Z,59.60
2018-05-09T22:14:58.671Z,60.01
2018-05-09T22:17:27.227Z,60.05
2018-05-09T22:19:56.464Z,60.54
2018-05-09T22:22:26.487Z,60.71
2018-05-09T22:24:54.980Z,59.68
2018-05-09T22:27:23.526Z,58.96
2018-05-09T22:29:52.772Z,59.31
2018-05-09T22:32:21.273Z,59.25
2018-05-09T22:34:49.788Z,60.06
2018-05-09T22:37:19.093Z,59.82
2018-05-09T22:39:48.327Z,59.85
2018-05-09T22:42:16.812Z,60.59
2018-05-09T22:44:45.281Z,60.72
2018-05-09T22:47:13.779Z,60.34
2018-05-09T22:49:42.261Z,60.99
2018-05-09T22:52:10.772Z,60.19
2018-05-09T22:54:39.260Z,59.96
2018-05-09T22:57:07.766Z,60.80
2018-05-09T22:59:36.227Z,61.03
2018-05-09T23:02:04.719Z,61.14
2018-05-09T23:04:33.202Z,61.09
2018-05-09T23:07:01.708Z,61.46
2018-05-09T23:09:30.177Z,61.27
2018-05-09T23:11:58.688Z,61.66
2018-05-09T23:14:27.262Z,61.69
2018-05-09T23:16:55.749Z,60.87
2018-05-09T23:19:24.216Z,60.66
2018-05-09T23:21:52.704Z,59.95
2018-05-09T23:24:21.204Z,60.24
2018-05-09T23:26:49.704Z,59.83
2018-05-09T23:29:19.175Z,60.49
2018-05-09T23:31:47.668Z,60.68
2018-05-09T23:34:16.173Z,60.74
2018-05-09T23:36:44.657Z,61.07
2018-05-09T23:39:13.169Z,60.90
2018-05-09T23:41:41.633Z,60.50
2018-05-09T23:44:10.128Z,60.56
2018-05-09T23:46:38.601Z,60.21
2018-05-09T23:49:07.103Z,59.69
2018-05-09T23:51:35.608Z,59.37
2018-05-09T23:54:04.873Z,59.07
2018-05-09T23:56:33.353Z,59.25
2018-05-09T23:59:01.889Z,59.25
